Time;durP1;ratioP1;P1;durP2;ratioP2;P2;SDS_P1;SDS_P2;PMS_P1;PMS_P2;Temp;Humidity;BMP_temperature;BMP_pressure;BME280_temperature;BME280_humidity;BME280_pressure;Samples;Min_cycle;Max_cycle;Signal;HPM_P1;HPM_P2
2023/11/12 00:00:21;;;;;;;8.60;6.50;;;;;;;16.30;76.12;98696.20;108129;1284;21989;-65
2023/11/12 00:02:47;;;;;;;10.60;6.90;;;;;;;16.30;75.92;98696.40;108139;1284;23619;-68
2023/11/12 00:05:17;;;;;;;11.00;7.50;;;;;;;16.30;75.87;98693.05;108145;1278;22449;-70
2023/11/12 00:07:43;;;;;;;9.50;6.60;;;;;;;16.29;75.92;98691.33;108139;1284;22021;-69
2023/11/12 00:10:12;;;;;;;9.50;6.80;;;;;;;16.27;76.09;98687.02;108141;1284;21985;-66
2023/11/12 00:12:40;;;;;;;10.30;7.40;;;;;;;16.25;75.61;98690.14;108192;1284;22101;-68
2023/11/12 00:15:07;;;;;;;8.80;6.80;;;;;;;16.24;75.90;98686.52;108191;1284;22847;-65
2023/11/12 00:17:33;;;;;;;11.60;7.50;;;;;;;16.20;75.96;98682.14;108180;1274;21991;-69
2023/11/12 00:20:00;;;;;;;9.00;6.70;;;;;;;16.18;75.97;98679.58;108153;1284;21984;-66
2023/11/12 00:22:28;;;;;;;8.00;6.50;;;;;;;16.18;75.84;98683.11;108195;1284;21989;-68
2023/11/12 00:24:53;;;;;;;10.80;6.20;;;;;;;16.15;75.98;98681.73;108266;1277;21986;-66
2023/11/12 00:27:19;;;;;;;9.50;6.80;;;;;;;16.12;76.05;98679.11;108184;1284;22172;-66
2023/11/12 00:29:46;;;;;;;10.20;6.30;;;;;;;16.08;76.29;98671.19;108202;1283;24017;-66
2023/11/12 00:32:11;;;;;;;10.10;6.60;;;;;;;16.07;76.01;98667.21;108265;1284;22078;-67
2023/11/12 00:34:38;;;;;;;8.10;6.40;;;;;;;16.04;75.96;98669.48;108218;1284;21989;-67
2023/11/12 00:37:04;;;;;;;8.10;5.60;;;;;;;16.02;76.04;98667.33;108260;1277;21987;-66
2023/11/12 00:39:31;;;;;;;7.00;5.80;;;;;;;16.03;75.77;98660.54;108202;1283;22156;-69
2023/11/12 00:41:59;;;;;;;8.30;6.50;;;;;;;16.02;76.15;98662.71;108200;1277;21983;-67
2023/11/12 00:44:25;;;;;;;7.30;5.70;;;;;;;16.04;75.80;98663.14;108311;1273;22450;-66
2023/11/12 00:46:50;;;;;;;7.60;5.60;;;;;;;16.06;75.75;98662.48;108258;1284;21995;-68
2023/11/12 00:49:17;;;;;;;8.60;6.10;;;;;;;16.06;76.04;98653.81;108230;1277;21988;-68
2023/11/12 00:51:44;;;;;;;8.80;5.70;;;;;;;16.06;76.01;98646.19;108314;1285;21982;-66
2023/11/12 00:54:10;;;;;;;7.80;5.90;;;;;;;16.04;76.44;98638.38;108295;1283;23609;-68
2023/11/12 00:56:36;;;;;;;8.30;6.10;;;;;;;16.02;76.40;98637.23;108095;1284;204066;-68
2023/11/12 00:59:04;;;;;;;7.00;5.40;;;;;;;16.01;76.64;98642.64;108099;1280;22001;-68
2023/11/12 01:01:32;;;;;;;7.30;5.80;;;;;;;15.98;77.29;98647.79;108277;1278;21984;-66
2023/11/12 01:03:57;;;;;;;7.40;5.50;;;;;;;16.00;76.98;98649.77;108240;1278;22021;-66
2023/11/12 01:06:23;;;;;;;8.70;5.20;;;;;;;15.99;77.05;98645.20;108209;1277;21987;-67
2023/11/12 01:08:49;;;;;;;8.80;5.80;;;;;;;15.99;77.09;98651.73;108170;1284;21987;-67
2023/11/12 01:11:15;;;;;;;8.80;5.20;;;;;;;15.99;76.81;98648.92;108175;1284;21986;-66
2023/11/12 01:13:40;;;;;;;8.00;5.70;;;;;;;15.93;76.66;98646.80;108183;1284;22450;-67
2023/11/12 01:16:06;;;;;;;9.50;5.90;;;;;;;15.95;75.72;98645.83;108119;1284;22024;-66
2023/11/12 01:18:34;;;;;;;9.80;6.40;;;;;;;15.98;75.40;98644.39;108196;1284;21987;-67
2023/11/12 01:20:59;;;;;;;9.10;5.80;;;;;;;16.00;74.99;98640.73;108236;1284;21992;-66
2023/11/12 01:23:25;;;;;;;7.30;5.80;;;;;;;16.01;74.89;98640.31;108135;1271;22210;-65
2023/11/12 01:25:51;;;;;;;8.50;5.90;;;;;;;16.02;74.47;98641.32;108133;1284;21994;-65
2023/11/12 01:28:16;;;;;;;9.80;6.70;;;;;;;16.00;74.41;98639.70;108171;1284;21993;-65
2023/11/12 01:30:42;;;;;;;9.50;7.20;;;;;;;15.96;74.79;98636.23;108134;1284;21986;-65
2023/11/12 01:33:08;;;;;;;14.40;8.10;;;;;;;15.94;74.83;98634.57;108140;1280;21993;-64
2023/11/12 01:35:33;;;;;;;10.70;6.90;;;;;;;15.93;74.91;98629.68;108151;1274;22452;-65
2023/11/12 01:37:59;;;;;;;10.70;7.40;;;;;;;15.92;74.50;98633.30;108160;1280;21995;-65
2023/11/12 01:40:25;;;;;;;9.90;7.20;;;;;;;15.93;74.17;98634.98;108185;1280;22024;-65
2023/11/12 01:42:51;;;;;;;8.90;6.80;;;;;;;15.96;74.11;98632.66;108164;1274;22021;-65
2023/11/12 01:45:16;;;;;;;8.10;6.60;;;;;;;15.99;74.00;98628.23;108157;1284;21983;-67
2023/11/12 01:47:44;;;;;;;8.50;7.10;;;;;;;15.99;74.06;98618.17;108188;1284;21985;-66
2023/11/12 01:50:12;;;;;;;9.50;7.70;;;;;;;16.00;74.06;98616.70;108260;1274;22011;-66
2023/11/12 01:52:39;;;;;;;7.90;7.10;;;;;;;16.02;73.79;98616.39;108310;1284;22037;-65
2023/11/12 01:55:06;;;;;;;10.20;7.50;;;;;;;16.01;73.56;98621.55;108165;1284;22453;-64
2023/11/12 01:57:33;;;;;;;10.10;8.80;;;;;;;15.99;73.39;98621.70;108213;1284;21984;-64
2023/11/12 02:00:00;;;;;;;8.60;7.70;;;;;;;15.98;73.07;98617.53;108241;1280;21992;-65
2023/11/12 02:02:27;;;;;;;11.40;7.50;;;;;;;15.97;72.84;98616.51;108207;1284;22009;-64
2023/11/12 02:04:52;;;;;;;9.30;6.80;;;;;;;15.93;72.82;98613.05;108281;1284;21985;-69
2023/11/12 02:07:19;;;;;;;7.30;6.30;;;;;;;15.90;72.77;98609.85;108211;1284;21990;-64
2023/11/12 02:09:44;;;;;;;7.00;6.20;;;;;;;15.88;72.62;98610.53;108147;1280;21988;-67
2023/11/12 02:12:13;;;;;;;7.20;6.20;;;;;;;15.85;72.50;98607.33;108249;1284;21995;-65
2023/11/12 02:14:38;;;;;;;8.60;7.50;;;;;;;15.84;72.47;98602.95;108098;1283;21983;-67
2023/11/12 02:17:05;;;;;;;8.20;6.50;;;;;;;15.82;72.45;98602.02;108140;1277;22560;-64
2023/11/12 02:19:30;;;;;;;7.70;6.90;;;;;;;15.83;72.42;98603.39;108217;1284;21981;-65
2023/11/12 02:21:56;;;;;;;9.00;7.30;;;;;;;15.79;72.50;98606.98;108267;1284;21986;-64
2023/11/12 02:24:23;;;;;;;7.10;6.10;;;;;;;15.78;72.32;98606.36;108222;1278;21978;-66
2023/11/12 02:26:49;;;;;;;7.10;5.70;;;;;;;15.74;72.45;98609.40;108231;1277;22025;-66
2023/11/12 02:29:16;;;;;;;7.70;6.00;;;;;;;15.70;72.21;98608.61;108221;1277;22084;-67
2023/11/12 02:31:42;;;;;;;8.60;6.80;;;;;;;15.61;72.10;98604.54;108342;1284;21991;-67
2023/11/12 02:34:08;;;;;;;7.70;6.50;;;;;;;15.57;71.62;98601.43;108245;1284;22002;-67
2023/11/12 02:36:35;;;;;;;8.20;6.10;;;;;;;15.49;71.13;98598.38;108242;1284;21979;-67
2023/11/12 02:39:06;;;;;;;9.70;6.80;;;;;;;15.43;71.01;98595.89;108184;1277;21989;-67
2023/11/12 02:41:37;;;;;;;8.60;6.50;;;;;;;15.36;71.24;98594.59;108174;1280;22029;-68
2023/11/12 02:44:07;;;;;;;8.40;6.10;;;;;;;15.31;71.28;98584.23;108216;1284;22734;-67
2023/11/12 02:46:34;;;;;;;9.20;6.10;;;;;;;15.28;71.19;98581.63;108198;1274;22000;-63
2023/11/12 02:49:27;;;;;;;6.50;5.70;;;;;;;15.22;71.33;98580.39;108172;1274;22051;-67
2023/11/12 02:51:53;;;;;;;6.50;5.70;;;;;;;15.17;71.45;98578.21;107486;1284;1006235;-68
2023/11/12 02:54:18;;;;;;;6.40;5.60;;;;;;;15.15;71.33;98576.19;108244;1284;21984;-64
2023/11/12 02:56:44;;;;;;;7.20;6.50;;;;;;;15.13;71.43;98580.04;108173;1281;21979;-62
2023/11/12 02:59:10;;;;;;;6.60;5.90;;;;;;;15.07;71.93;98586.40;108220;1284;21989;-67
2023/11/12 03:01:36;;;;;;;7.70;6.20;;;;;;;15.05;71.88;98585.12;108183;1284;21999;-62
2023/11/12 03:04:02;;;;;;;8.30;6.50;;;;;;;15.00;72.19;98585.72;108146;1281;21995;-63
2023/11/12 03:06:27;;;;;;;6.70;5.80;;;;;;;14.97;72.04;98583.10;108172;1284;22110;-62
2023/11/12 03:08:54;;;;;;;7.70;6.10;;;;;;;14.96;72.12;98582.31;108171;1283;22001;-62
2023/11/12 03:11:20;;;;;;;7.10;6.00;;;;;;;14.93;72.06;98583.15;108252;1284;21988;-62
2023/11/12 03:13:46;;;;;;;7.10;5.90;;;;;;;14.96;71.60;98585.97;108176;1284;22245;-63
2023/11/12 03:16:15;;;;;;;7.50;6.70;;;;;;;14.94;71.75;98586.62;108260;1284;21968;-68
2023/11/12 03:18:42;;;;;;;7.20;6.50;;;;;;;14.92;71.63;98584.09;108176;1280;21984;-64
2023/11/12 03:21:09;;;;;;;7.00;6.30;;;;;;;14.87;71.95;98582.96;108190;1283;21989;-62
2023/11/12 03:23:35;;;;;;;9.20;7.30;;;;;;;14.86;71.98;98580.58;108136;1280;21989;-62
2023/11/12 03:26:01;;;;;;;7.60;6.10;;;;;;;14.84;71.80;98579.95;108213;1280;21987;-61
2023/11/12 03:28:27;;;;;;;7.90;6.20;;;;;;;14.82;72.00;98578.12;108151;1284;21999;-64
2023/11/12 03:30:52;;;;;;;6.70;6.00;;;;;;;14.83;71.75;98579.64;108156;1284;21983;-67
2023/11/12 03:33:18;;;;;;;7.20;6.30;;;;;;;14.84;71.76;98578.38;108206;1283;23729;-65
2023/11/12 03:35:47;;;;;;;7.60;6.80;;;;;;;14.83;72.01;98577.17;108196;1284;21985;-68
2023/11/12 03:38:13;;;;;;;7.90;6.50;;;;;;;14.81;72.00;98576.08;108246;1280;21991;-64
2023/11/12 03:40:38;;;;;;;7.60;6.20;;;;;;;14.80;72.00;98574.55;108184;1284;21981;-62
2023/11/12 03:43:04;;;;;;;6.50;5.90;;;;;;;14.76;72.55;98573.58;108178;1274;21974;-68
2023/11/12 03:45:30;;;;;;;7.90;6.20;;;;;;;14.72;72.63;98573.42;108176;1284;21990;-65
2023/11/12 03:47:55;;;;;;;7.00;6.30;;;;;;;14.69;72.71;98576.05;108174;1280;21955;-62
2023/11/12 03:50:21;;;;;;;6.60;5.90;;;;;;;14.66;72.79;98581.69;108230;1274;22161;-67
2023/11/12 03:52:46;;;;;;;7.40;5.90;;;;;;;14.68;72.46;98582.08;108230;1280;22019;-65
2023/11/12 03:55:12;;;;;;;7.00;5.80;;;;;;;14.67;72.76;98585.48;108218;1278;21983;-61
2023/11/12 03:57:38;;;;;;;10.00;6.30;;;;;;;14.67;72.65;98588.50;108238;1284;22001;-61
2023/11/12 04:00:06;;;;;;;7.20;6.00;;;;;;;14.64;73.02;98593.10;108310;1284;21984;-67
2023/11/12 04:02:32;;;;;;;7.50;5.40;;;;;;;14.64;72.71;98590.79;108268;1284;23038;-67
2023/11/12 04:04:58;;;;;;;8.10;5.60;;;;;;;14.62;73.04;98596.40;108245;1284;22012;-63
2023/11/12 04:07:23;;;;;;;6.60;5.80;;;;;;;14.62;72.94;98608.08;108196;1275;21997;-67
2023/11/12 04:09:49;;;;;;;6.10;4.70;;;;;;;14.58;73.07;98605.80;108175;1283;22024;-63
2023/11/12 04:12:15;;;;;;;5.80;4.50;;;;;;;14.55;73.05;98605.06;108138;1284;22025;-68
2023/11/12 04:14:40;;;;;;;9.00;4.90;;;;;;;14.55;72.70;98600.51;108177;1284;21988;-63
2023/11/12 04:17:06;;;;;;;5.00;3.80;;;;;;;14.50;72.28;98598.64;108112;1284;21988;-61
2023/11/12 04:19:32;;;;;;;6.00;4.20;;;;;;;14.41;72.35;98601.63;108152;1284;21993;-63
2023/11/12 04:21:57;;;;;;;4.40;3.30;;;;;;;14.29;72.35;98607.09;108229;1284;21996;-62
2023/11/12 04:24:23;;;;;;;5.20;3.90;;;;;;;14.17;72.04;98610.87;107396;1277;1002495;-67
2023/11/12 04:26:48;;;;;;;5.80;3.10;;;;;;;14.05;71.81;98612.41;108210;1284;21981;-67
2023/11/12 04:29:14;;;;;;;5.20;3.20;;;;;;;13.97;71.08;98607.20;108141;1275;21995;-63
2023/11/12 04:31:40;;;;;;;4.30;2.70;;;;;;;13.90;70.74;98605.29;108076;1280;21988;-61
2023/11/12 04:34:07;;;;;;;6.20;2.90;;;;;;;13.82;71.06;98608.20;108300;1275;21983;-61
2023/11/12 04:36:35;;;;;;;3.80;2.50;;;;;;;13.71;71.24;98609.35;108219;1284;21983;-62
2023/11/12 04:39:00;;;;;;;5.80;2.90;;;;;;;13.61;70.82;98608.25;108221;1277;21994;-62
2023/11/12 04:41:27;;;;;;;3.60;2.80;;;;;;;13.54;70.63;98610.05;108282;1284;21986;-61
2023/11/12 04:43:53;;;;;;;4.60;2.90;;;;;;;13.46;70.53;98615.91;108199;1274;21985;-67
2023/11/12 04:46:19;;;;;;;3.90;2.30;;;;;;;13.35;70.74;98625.77;108244;1284;22021;-66
2023/11/12 04:48:46;;;;;;;3.30;2.50;;;;;;;13.29;70.49;98636.51;108172;1277;21980;-61
2023/11/12 04:51:16;;;;;;;4.10;3.00;;;;;;;13.22;70.60;98629.26;108174;1284;21984;-67
2023/11/12 04:53:42;;;;;;;5.60;2.90;;;;;;;13.17;70.35;98632.52;108169;1284;21995;-67
2023/11/12 04:56:09;;;;;;;4.90;2.60;;;;;;;13.07;70.65;98634.77;108158;1274;21991;-67
2023/11/12 04:58:35;;;;;;;3.80;2.90;;;;;;;13.06;70.44;98643.45;108205;1272;23068;-62
2023/11/12 05:01:03;;;;;;;4.60;3.10;;;;;;;13.03;70.60;98643.28;108254;1284;21999;-61
2023/11/12 05:03:31;;;;;;;5.40;2.60;;;;;;;13.01;70.69;98641.42;108235;1283;21989;-62
2023/11/12 05:05:59;;;;;;;3.30;2.50;;;;;;;13.01;70.92;98649.38;108181;1285;21991;-65
2023/11/12 05:08:25;;;;;;;4.20;2.80;;;;;;;13.02;71.31;98651.76;108207;1281;21988;-67
2023/11/12 05:10:51;;;;;;;3.60;2.60;;;;;;;13.10;71.09;98655.77;108179;1274;23622;-69
2023/11/12 05:13:16;;;;;;;4.40;2.50;;;;;;;13.16;70.93;98666.71;108244;1284;21989;-60
2023/11/12 05:15:42;;;;;;;6.10;2.20;;;;;;;13.22;70.74;98675.41;108224;1284;21994;-67
2023/11/12 05:18:08;;;;;;;3.90;2.30;;;;;;;13.27;70.45;98684.31;108277;1280;21993;-61
2023/11/12 05:20:33;;;;;;;3.60;2.30;;;;;;;13.32;70.27;98686.71;108223;1284;21992;-61
2023/11/12 05:23:01;;;;;;;5.30;2.50;;;;;;;13.31;70.56;98700.33;106757;1284;1006064;-61
2023/11/12 05:25:28;;;;;;;3.50;2.30;;;;;;;13.32;70.41;98706.24;108375;1284;21986;-62
2023/11/12 05:27:54;;;;;;;2.90;2.40;;;;;;;13.34;70.30;98705.46;108294;1284;22840;-61
2023/11/12 05:30:21;;;;;;;3.40;2.60;;;;;;;13.36;70.04;98707.66;107482;1275;1003112;-68
2023/11/12 05:32:47;;;;;;;3.90;2.50;;;;;;;13.33;70.35;98705.30;108389;1284;21984;-61
2023/11/12 05:35:13;;;;;;;3.50;2.60;;;;;;;13.40;69.94;98706.42;108270;1284;21980;-67
2023/11/12 05:37:39;;;;;;;3.60;2.60;;;;;;;13.36;69.54;98701.65;108227;1284;21987;-61
2023/11/12 05:40:05;;;;;;;3.90;2.50;;;;;;;13.33;69.29;98704.79;108174;1277;21989;-67
2023/11/12 05:42:31;;;;;;;3.70;2.60;;;;;;;13.28;69.44;98704.36;108169;1284;21985;-60
2023/11/12 05:44:57;;;;;;;3.00;2.50;;;;;;;13.22;69.60;98701.64;108193;1274;21990;-67
2023/11/12 05:47:23;;;;;;;3.60;2.70;;;;;;;13.16;69.57;98701.78;108232;1284;21993;-60
2023/11/12 05:49:49;;;;;;;4.30;3.20;;;;;;;13.10;69.86;98699.95;108183;1284;21983;-66
2023/11/12 05:52:15;;;;;;;4.90;3.00;;;;;;;13.11;69.63;98706.79;108182;1274;21991;-59
2023/11/12 05:54:41;;;;;;;4.00;2.70;;;;;;;13.04;70.12;98711.51;108229;1284;21988;-60
2023/11/12 05:57:06;;;;;;;3.70;2.70;;;;;;;13.03;70.13;98712.64;108270;1280;22103;-66
2023/11/12 05:59:32;;;;;;;3.50;2.50;;;;;;;13.04;70.31;98714.16;108145;1284;21982;-59
2023/11/12 06:01:58;;;;;;;3.50;2.50;;;;;;;13.02;70.75;98714.09;108227;1278;21988;-65
2023/11/12 06:04:24;;;;;;;3.70;2.50;;;;;;;13.05;70.54;98720.43;107464;1284;1002588;-66
2023/11/12 06:06:50;;;;;;;5.50;2.60;;;;;;;13.01;70.90;98716.22;108295;1274;22108;-59
2023/11/12 06:09:16;;;;;;;3.40;2.40;;;;;;;13.08;70.91;98718.17;108256;1281;21996;-66
2023/11/12 06:11:41;;;;;;;3.60;2.40;;;;;;;13.15;70.87;98718.72;108306;1284;22007;-67
2023/11/12 06:14:07;;;;;;;4.50;2.60;;;;;;;13.21;71.38;98721.23;108174;1284;22003;-67
2023/11/12 06:16:33;;;;;;;3.80;1.80;;;;;;;13.32;71.32;98724.92;108212;1284;22010;-60
2023/11/12 06:18:58;;;;;;;3.30;1.90;;;;;;;13.42;71.16;98729.40;108176;1274;24871;-60
2023/11/12 06:21:24;;;;;;;3.70;1.90;;;;;;;13.49;70.53;98727.30;108248;1284;21984;-60
2023/11/12 06:23:51;;;;;;;3.30;1.70;;;;;;;13.48;70.58;98729.63;108168;1284;21996;-61
2023/11/12 06:26:20;;;;;;;2.30;1.40;;;;;;;13.46;70.08;98730.94;109199;1284;21951;-60
2023/11/12 06:28:49;;;;;;;2.10;1.20;;;;;;;13.47;69.81;98734.96;108182;1284;21988;-60
2023/11/12 06:31:16;;;;;;;2.30;1.20;;;;;;;13.53;69.65;98737.50;108167;1284;21991;-65
2023/11/12 06:33:45;;;;;;;1.60;1.00;;;;;;;13.58;69.57;98733.21;108988;1275;22042;-67
2023/11/12 06:36:13;;;;;;;0.90;0.50;;;;;;;13.62;68.98;98734.23;109543;1284;21921;-61
2023/11/12 06:38:45;;;;;;;4.70;0.70;;;;;;;13.66;68.33;98741.25;108491;1284;22002;-68
2023/11/12 06:41:11;;;;;;;4.90;0.60;;;;;;;13.67;68.03;98747.52;108183;1284;21994;-60
2023/11/12 06:43:37;;;;;;;2.40;0.80;;;;;;;13.72;68.05;98747.27;108213;1284;21993;-60
2023/11/12 06:46:05;;;;;;;1.00;0.30;;;;;;;13.79;67.97;98757.65;108275;1278;21980;-61
2023/11/12 06:48:31;;;;;;;7.60;0.80;;;;;;;13.75;67.56;98760.89;108190;1284;21990;-69
2023/11/12 06:50:57;;;;;;;1.50;0.20;;;;;;;13.68;67.25;98766.34;108238;1284;21986;-68
2023/11/12 06:53:23;;;;;;;1.00;0.30;;;;;;;13.65;67.10;98762.98;108196;1284;22010;-67
2023/11/12 06:55:48;;;;;;;1.70;0.30;;;;;;;13.69;67.22;98771.21;108168;1275;21989;-61
2023/11/12 06:58:14;;;;;;;4.00;0.10;;;;;;;13.64;66.98;98776.78;108254;1284;21999;-68
2023/11/12 07:00:40;;;;;;;9.20;0.70;;;;;;;13.63;66.89;98789.89;108182;1284;21986;-68
2023/11/12 07:03:05;;;;;;;0.50;0.20;;;;;;;13.61;66.81;98795.42;108214;1274;22453;-60
2023/11/12 07:05:32;;;;;;;0.70;0.20;;;;;;;13.59;66.95;98805.40;108158;1284;21985;-61
2023/11/12 07:07:58;;;;;;;2.00;0.20;;;;;;;13.59;66.97;98812.41;108267;1278;22018;-68
2023/11/12 07:10:24;;;;;;;0.60;0.20;;;;;;;13.55;66.96;98819.48;108269;1278;21990;-63
2023/11/12 07:12:50;;;;;;;3.80;0.30;;;;;;;13.50;67.11;98826.42;108275;1273;21988;-68
2023/11/12 07:15:15;;;;;;;4.50;1.00;;;;;;;13.45;66.33;98833.55;108234;1284;21980;-62
2023/11/12 07:17:43;;;;;;;0.60;0.20;;;;;;;13.40;66.28;98842.27;108242;1277;21986;-68
2023/11/12 07:20:11;;;;;;;0.20;0.20;;;;;;;13.45;66.98;98861.77;108275;1274;21983;-68
2023/11/12 07:22:36;;;;;;;0.20;0.20;;;;;;;13.34;66.52;98865.77;108312;1277;21989;-61
2023/11/12 07:25:03;;;;;;;0.70;0.20;;;;;;;13.26;66.48;98872.13;108254;1275;21994;-60
2023/11/12 07:27:31;;;;;;;3.10;1.10;;;;;;;13.21;66.64;98880.48;108237;1277;22021;-66
2023/11/12 07:29:57;;;;;;;0.30;0.10;;;;;;;13.12;66.08;98895.88;108247;1284;22002;-65
2023/11/12 07:32:22;;;;;;;0.20;0.10;;;;;;;13.05;66.54;98903.22;108239;1281;21989;-63
2023/11/12 07:34:48;;;;;;;0.70;0.30;;;;;;;12.95;66.61;98910.19;108207;1274;21988;-62
2023/11/12 07:37:14;;;;;;;1.00;0.20;;;;;;;12.85;66.63;98912.55;108256;1284;21998;-64
2023/11/12 07:39:40;;;;;;;0.60;0.20;;;;;;;12.73;67.00;98925.39;108216;1284;21991;-62
2023/11/12 07:42:06;;;;;;;1.00;0.20;;;;;;;12.78;67.51;98925.02;108247;1284;21982;-63
2023/11/12 07:44:32;;;;;;;0.10;0.10;;;;;;;12.78;68.04;98935.04;108303;1278;22019;-64
2023/11/12 07:46:58;;;;;;;0.30;0.10;;;;;;;12.87;68.17;98948.20;108284;1284;21985;-64
2023/11/12 08:57:14;;;;;;;1.70;0.60;;;;;;;8.77;100.00;99156.53;107548;1292;550465;-62
2023/11/12 08:59:40;;;;;;;0.40;0.30;;;;;;;11.30;95.73;99149.19;107814;1287;21992;-62
2023/11/12 09:02:09;;;;;;;3.00;0.40;;;;;;;11.64;89.67;99145.86;107601;1290;22024;-62
2023/11/12 09:04:34;;;;;;;1.50;0.70;;;;;;;11.79;87.39;99143.91;107790;1293;22006;-63
2023/11/12 09:07:01;;;;;;;2.50;0.50;;;;;;;11.83;85.17;99151.86;107781;1290;21995;-61
2023/11/12 09:09:27;;;;;;;1.10;0.40;;;;;;;11.91;83.35;99159.28;107680;1287;188537;-68
2023/11/12 09:11:52;;;;;;;0.70;0.20;;;;;;;11.94;81.46;99157.92;107777;1292;22084;-68
2023/11/12 09:14:21;;;;;;;1.10;0.30;;;;;;;11.99;80.82;99163.76;107720;1291;21994;-61
2023/11/12 09:16:46;;;;;;;1.70;0.30;;;;;;;11.94;79.81;99166.04;107867;1291;22003;-69
2023/11/12 09:19:12;;;;;;;1.50;0.20;;;;;;;11.93;79.21;99175.92;107903;1276;21985;-67
2023/11/12 09:21:38;;;;;;;0.10;0.10;;;;;;;11.87;79.25;99179.30;107904;1290;21991;-68
2023/11/12 09:24:04;;;;;;;0.60;0.10;;;;;;;11.91;79.06;99181.09;107809;1290;21992;-70
2023/11/12 09:26:30;;;;;;;0.30;0.20;;;;;;;11.94;78.64;99178.53;107819;1290;21990;-62
2023/11/12 09:28:55;;;;;;;0.80;0.30;;;;;;;11.97;78.84;99181.77;107814;1290;21998;-69
2023/11/12 09:31:21;;;;;;;1.20;0.10;;;;;;;11.98;78.93;99188.39;107829;1290;21998;-61
2023/11/12 09:33:50;;;;;;;1.90;0.50;;;;;;;12.04;78.98;99193.16;107917;1287;21992;-67
2023/11/12 09:36:17;;;;;;;0.50;0.20;;;;;;;12.09;78.95;99197.19;107922;1289;21991;-67
2023/11/12 09:38:43;;;;;;;0.80;0.20;;;;;;;12.14;78.94;99194.52;107866;1290;22005;-69
2023/11/12 09:41:09;;;;;;;1.20;0.20;;;;;;;12.16;78.77;99195.16;107877;1290;21993;-61
2023/11/12 09:43:35;;;;;;;2.40;0.40;;;;;;;12.21;78.40;99196.01;107854;1291;21991;-67
2023/11/12 09:46:08;;;;;;;1.10;0.40;;;;;;;12.21;78.86;99200.41;107882;1287;21993;-62
2023/11/12 09:48:39;;;;;;;1.40;0.30;;;;;;;12.27;78.89;99201.77;107850;1291;21987;-68
2023/11/12 09:51:05;;;;;;;0.70;0.40;;;;;;;12.31;79.05;99202.16;107840;1286;21982;-69
2023/11/12 09:53:44;;;;;;;0.60;0.20;;;;;;;12.32;79.34;99205.63;107946;1284;21993;-68
2023/11/12 09:56:10;;;;;;;3.00;0.40;;;;;;;12.32;79.79;99209.30;107796;1289;21983;-61
2023/11/12 09:58:41;;;;;;;0.70;0.30;;;;;;;12.36;79.28;99214.43;107956;1281;22023;-61
2023/11/12 10:01:07;;;;;;;1.60;0.90;;;;;;;12.42;79.29;99215.10;107896;1289;21980;-69
2023/11/12 10:03:34;;;;;;;1.60;0.80;;;;;;;12.41;79.77;99221.11;107953;1289;21991;-70
2023/11/12 10:06:02;;;;;;;2.10;1.30;;;;;;;12.41;80.19;99220.22;107991;1290;21990;-61
2023/11/12 10:08:29;;;;;;;1.90;1.00;;;;;;;12.48;80.17;99224.17;107965;1281;21967;-62
2023/11/12 10:11:12;;;;;;;0.60;0.30;;;;;;;12.53;80.36;99223.13;107804;1289;22029;-68
2023/11/12 10:13:39;;;;;;;2.10;0.80;;;;;;;12.54;80.50;99221.33;107741;1289;21991;-62
2023/11/12 10:16:32;;;;;;;0.30;0.20;;;;;;;12.57;80.21;99229.47;107912;1289;21984;-68
2023/11/12 10:19:12;;;;;;;0.90;0.30;;;;;;;12.58;80.15;99233.48;107920;1289;21995;-70
2023/11/12 10:21:58;;;;;;;1.00;0.20;;;;;;;12.60;80.33;99239.40;107977;1286;23699;-61
2023/11/12 10:24:28;;;;;;;2.40;0.60;;;;;;;12.62;79.95;99241.58;107957;1289;21989;-70
2023/11/12 10:27:04;;;;;;;1.00;0.20;;;;;;;12.63;79.89;99242.09;107960;1289;21960;-69
2023/11/12 10:29:30;;;;;;;1.40;0.10;;;;;;;12.57;80.53;99249.35;108158;1287;21987;-68
2023/11/12 10:31:57;;;;;;;2.30;0.20;;;;;;;12.62;80.12;99250.57;108121;1287;21984;-61
2023/11/12 10:34:27;;;;;;;1.20;0.10;;;;;;;12.55;80.41;99258.92;107810;1287;21984;-68
2023/11/12 10:37:05;;;;;;;0.50;0.20;;;;;;;12.58;80.28;99260.92;108209;1281;22022;-68
2023/11/12 10:39:40;;;;;;;0.30;0.20;;;;;;;12.66;80.09;99263.27;108212;1287;22103;-62
2023/11/12 10:42:26;;;;;;;0.40;0.10;;;;;;;12.67;79.80;99265.36;108094;1287;22154;-72
2023/11/12 10:44:56;;;;;;;0.50;0.20;;;;;;;12.64;79.48;99275.82;108044;1287;21993;-69
2023/11/12 10:47:32;;;;;;;0.50;0.10;;;;;;;12.67;79.71;99281.52;107315;1287;1002604;-61
2023/11/12 10:49:58;;;;;;;0.70;0.10;;;;;;;12.73;79.01;99283.94;108091;1287;22027;-70
2023/11/12 10:52:23;;;;;;;0.10;0.00;;;;;;;12.72;78.82;99285.56;107968;1287;21990;-62
2023/11/12 10:54:52;;;;;;;0.30;0.20;;;;;;;12.82;78.91;99286.06;107882;1287;21998;-62
2023/11/12 10:57:21;;;;;;;0.30;0.10;;;;;;;12.84;78.76;99291.09;107933;1287;21991;-62
2023/11/12 10:59:46;;;;;;;0.30;0.10;;;;;;;12.92;78.68;99299.60;108093;1280;21986;-63
2023/11/12 11:02:18;;;;;;;0.10;0.00;;;;;;;12.84;79.06;99307.10;107932;1287;21982;-70
2023/11/12 11:04:45;;;;;;;0.90;0.20;;;;;;;12.89;78.21;99312.00;108133;1287;22006;-66
2023/11/12 11:07:11;;;;;;;0.50;0.10;;;;;;;12.91;78.25;99318.27;108101;1287;21985;-63
2023/11/12 11:09:37;;;;;;;1.30;0.40;;;;;;;12.80;78.70;99324.52;108027;1287;23631;-69
2023/11/12 11:12:03;;;;;;;0.20;0.10;;;;;;;12.85;78.13;99322.54;107996;1287;21979;-63
2023/11/12 11:14:29;;;;;;;0.10;0.10;;;;;;;12.91;77.79;99329.90;108161;1287;21986;-68
2023/11/12 11:16:55;;;;;;;0.40;0.20;;;;;;;12.93;77.85;99341.81;107419;1287;1002411;-63
2023/11/12 11:19:43;;;;;;;1.80;0.10;;;;;;;12.91;77.67;99342.95;108098;1287;21996;-68
2023/11/12 11:22:28;;;;;;;0.30;0.10;;;;;;;12.93;77.15;99357.13;108106;1287;21998;-69
2023/11/12 11:24:55;;;;;;;0.40;0.10;;;;;;;12.91;76.97;99359.13;108097;1287;21959;-63
2023/11/12 11:27:24;;;;;;;2.00;0.20;;;;;;;12.95;76.99;99365.66;108198;1287;22000;-66
2023/11/12 11:30:16;;;;;;;0.50;0.20;;;;;;;12.88;76.88;99367.86;108251;1287;21981;-63
2023/11/12 11:32:54;;;;;;;0.20;0.00;;;;;;;12.93;77.21;99368.22;108309;1287;21982;-68
2023/11/12 11:35:26;;;;;;;0.40;0.10;;;;;;;12.93;77.31;99365.92;108197;1287;22023;-63
2023/11/12 11:38:10;;;;;;;0.60;0.20;;;;;;;12.93;77.22;99367.84;108159;1287;21977;-63
2023/11/12 11:40:36;;;;;;;0.60;0.20;;;;;;;13.01;76.53;99372.85;108097;1287;22013;-66
2023/11/12 11:43:21;;;;;;;0.30;0.20;;;;;;;12.99;76.61;99376.08;108146;1287;21994;-63
2023/11/12 11:46:09;;;;;;;1.60;0.40;;;;;;;13.02;76.35;99378.60;108145;1278;21988;-66
2023/11/12 11:48:56;;;;;;;1.10;0.40;;;;;;;13.03;76.39;99385.08;108136;1287;21989;-66
2023/11/12 11:51:43;;;;;;;0.70;0.50;;;;;;;13.11;76.14;99390.44;108025;1287;22004;-64
2023/11/12 11:54:15;;;;;;;0.60;0.30;;;;;;;13.10;75.88;99394.35;108143;1287;21986;-65
2023/11/12 11:56:40;;;;;;;1.90;0.40;;;;;;;13.13;75.63;99395.43;108040;1289;21981;-65
2023/11/12 11:59:06;;;;;;;2.10;0.50;;;;;;;13.06;75.72;99402.58;108047;1289;21980;-63
2023/11/12 12:01:46;;;;;;;0.50;0.40;;;;;;;13.13;75.77;99406.72;108040;1287;22099;-65
2023/11/12 12:04:13;;;;;;;1.30;0.60;;;;;;;13.17;75.35;99409.57;108128;1287;22003;-63
2023/11/12 12:06:45;;;;;;;0.60;0.30;;;;;;;13.14;75.47;99415.13;108127;1283;21997;-65
2023/11/12 12:09:18;;;;;;;0.50;0.40;;;;;;;13.17;75.01;99421.00;108032;1287;21993;-65
2023/11/12 12:11:52;;;;;;;0.90;0.30;;;;;;;13.18;74.48;99418.70;107839;1287;23769;-65
2023/11/12 12:14:22;;;;;;;1.70;0.30;;;;;;;13.12;74.21;99423.66;108076;1287;22440;-66
2023/11/12 12:16:48;;;;;;;0.70;0.40;;;;;;;13.10;73.83;99428.84;108055;1281;22244;-65
2023/11/12 12:19:17;;;;;;;2.40;0.40;;;;;;;13.08;73.86;99439.30;108021;1289;21989;-66
2023/11/12 12:21:50;;;;;;;0.50;0.20;;;;;;;13.03;73.80;99440.90;107798;1289;21978;-65
2023/11/12 12:24:22;;;;;;;0.90;0.30;;;;;;;13.07;73.70;99443.60;108046;1286;23650;-66
2023/11/12 12:26:48;;;;;;;0.20;0.20;;;;;;;13.00;73.70;99452.48;107092;1286;1002628;-66
2023/11/12 12:29:15;;;;;;;0.80;0.30;;;;;;;12.96;74.05;99461.58;107934;1287;21986;-66
2023/11/12 12:31:44;;;;;;;0.70;0.40;;;;;;;12.98;73.91;99464.33;108132;1287;21985;-66
2023/11/12 12:34:11;;;;;;;1.00;0.30;;;;;;;13.05;73.84;99469.73;108103;1278;21989;-66